createdAt,value
2019-04-06T00:03:11.191Z,50.00
2019-04-06T00:08:14.600Z,50.40
2019-04-06T00:13:18.712Z,50.60
2019-04-06T00:18:22.364Z,50.70
2019-04-06T00:23:25.714Z,51.00
2019-04-06T00:28:30.627Z,51.10
2019-04-06T00:33:34.180Z,51.40
2019-04-06T00:38:37.674Z,51.60
2019-04-06T00:43:41.314Z,51.60
2019-04-06T00:48:44.709Z,51.80
2019-04-06T00:53:48.450Z,52.10
2019-04-06T00:58:52.639Z,52.40
2019-04-06T01:03:56.028Z,52.50
2019-04-06T01:08:59.514Z,52.80
2019-04-06T01:14:02.949Z,53.00
2019-04-06T01:19:06.413Z,53.20
2019-04-06T01:24:09.802Z,53.30
2019-04-06T01:29:13.254Z,53.60
2019-04-06T01:34:17.178Z,53.80
2019-04-06T01:39:20.596Z,53.90
2019-04-06T01:44:25.070Z,54.30
2019-04-06T01:49:28.696Z,54.50
2019-04-06T01:54:32.120Z,54.70
2019-04-06T01:59:35.564Z,55.00
2019-04-06T02:04:39.082Z,55.30
2019-04-06T02:09:42.514Z,55.50
2019-04-06T02:14:45.975Z,55.80
2019-04-06T02:19:53.178Z,56.00
2019-04-06T02:24:56.667Z,56.10
2019-04-06T02:30:10.826Z,56.30
2019-04-06T02:35:22.868Z,56.50
2019-04-06T02:40:30.764Z,56.60
2019-04-06T02:45:35.068Z,56.90
2019-04-06T02:50:38.467Z,57.20
2019-04-06T02:55:41.990Z,57.20
2019-04-06T03:00:46.787Z,57.40
2019-04-06T03:05:51.204Z,57.40
2019-04-06T03:10:54.569Z,57.50
2019-04-06T03:15:57.962Z,57.80
2019-04-06T03:21:01.401Z,58.00
2019-04-06T03:26:06.800Z,58.10
2019-04-06T03:31:12.047Z,58.30
2019-04-06T03:36:15.437Z,59.10
2019-04-06T03:41:18.817Z,58.70
2019-04-06T03:46:23.852Z,58.70
2019-04-06T03:51:27.238Z,59.00
2019-04-06T03:56:31.425Z,58.90
2019-04-06T04:01:34.966Z,59.10
2019-04-06T04:06:39.381Z,59.90
2019-04-06T04:11:43.106Z,59.20
2019-04-06T04:16:47.442Z,59.20
2019-04-06T04:21:53.019Z,59.10
2019-04-06T04:26:59.139Z,59.10
2019-04-06T04:32:02.589Z,59.00
2019-04-06T04:37:15.346Z,58.90
2019-04-06T04:42:18.896Z,58.90
2019-04-06T04:47:23.045Z,58.70
2019-04-06T04:52:26.492Z,58.60
2019-04-06T04:57:40.335Z,58.50
2019-04-06T05:02:40.965Z,58.40
2019-04-06T05:07:48.755Z,58.30
2019-04-06T05:12:54.106Z,58.10
2019-04-06T05:18:01.359Z,58.00
2019-04-06T05:23:04.991Z,57.90
2019-04-06T05:28:13.540Z,57.60
2019-04-06T05:33:17.290Z,57.40
2019-04-06T05:38:21.527Z,57.20
2019-04-06T05:43:29.764Z,57.20
2019-04-06T05:48:34.154Z,56.70
2019-04-06T05:53:38.677Z,56.60
2019-04-06T05:58:44.400Z,56.30
2019-04-06T06:03:56.547Z,55.90
2019-04-06T06:09:00.136Z,55.40
2019-04-06T06:14:04.870Z,55.00
2019-04-06T06:19:14.048Z,54.80
2019-04-06T06:24:17.858Z,54.20
2019-04-06T06:29:21.335Z,52.40
2019-04-06T06:34:33.891Z,52.20
2019-04-06T06:39:46.231Z,52.30
2019-04-06T06:44:50.115Z,51.90
2019-04-06T06:49:55.916Z,51.60
2019-04-06T06:55:00.993Z,51.30
2019-04-06T07:00:09.291Z,51.10
2019-04-06T07:05:12.786Z,50.80
2019-04-06T07:10:16.163Z,50.90
2019-04-06T07:15:19.746Z,50.90
2019-04-06T07:31:16.116Z,47.20
2019-04-06T07:36:19.477Z,48.00
2019-04-06T08:08:47.046Z,47.30
2019-04-06T08:13:53.437Z,46.90
2019-04-06T08:19:03.316Z,46.50
2019-04-06T08:29:39.234Z,43.80
2019-04-06T08:34:42.770Z,40.10
2019-04-06T08:39:52.645Z,36.70
2019-04-06T08:45:02.350Z,36.30
2019-04-06T08:50:11.478Z,35.10
2019-04-06T08:55:40.146Z,32.40
2019-04-06T09:00:45.618Z,31.70
2019-04-06T09:05:49.236Z,31.50
2019-04-06T09:10:56.382Z,31.70
2019-04-06T09:15:59.869Z,30.60
2019-04-06T09:21:05.579Z,32.10
2019-04-06T09:26:09.294Z,32.50
2019-04-06T09:31:14.690Z,29.80
2019-04-06T09:36:18.120Z,31.60
2019-04-06T09:41:21.738Z,31.20
2019-04-06T09:46:33.627Z,30.20
2019-04-06T09:51:44.103Z,29.20
2019-04-06T09:56:52.510Z,28.80
2019-04-06T10:02:15.146Z,29.40
2019-04-06T10:07:45.002Z,28.00
2019-04-06T10:13:15.315Z,27.10
2019-04-06T10:18:17.402Z,26.60
2019-04-06T10:23:39.607Z,25.00
2019-04-06T10:28:44.715Z,21.00
2019-04-06T10:33:49.787Z,17.70
2019-04-06T10:39:01.603Z,16.40
2019-04-06T10:44:21.537Z,15.10
2019-04-06T10:49:29.225Z,15.50
2019-04-06T10:54:39.896Z,16.40
2019-04-06T11:00:03.195Z,16.70
2019-04-06T11:05:14.393Z,15.90
2019-04-06T11:10:19.421Z,16.80
2019-04-06T11:15:36.686Z,16.00
2019-04-06T11:20:41.661Z,16.20
2019-04-06T11:26:03.104Z,17.50
2019-04-06T11:31:08.055Z,18.20
2019-04-06T11:36:25.126Z,20.00
2019-04-06T11:41:46.662Z,19.10
2019-04-06T11:47:08.305Z,17.60
2019-04-06T11:52:28.352Z,18.40
2019-04-06T12:05:20.743Z,19.80
2019-04-06T12:10:29.763Z,20.80
2019-04-06T12:15:44.058Z,20.70
2019-04-06T12:20:55.044Z,19.90
2019-04-06T12:26:00.005Z,22.30
2019-04-06T12:36:36.601Z,23.70
2019-04-06T12:41:47.847Z,23.20
2019-04-06T12:47:01.952Z,21.80
2019-04-06T12:52:15.985Z,20.50
2019-04-06T12:57:27.009Z,21.80
2019-04-06T13:02:34.843Z,20.80
2019-04-06T13:07:56.217Z,21.40
2019-04-06T13:13:18.192Z,20.20
2019-04-06T13:18:41.797Z,21.70
2019-04-06T13:23:49.864Z,24.60
2019-04-06T13:29:07.008Z,24.40
2019-04-06T13:34:14.899Z,26.70
2019-04-06T13:39:26.211Z,28.80
2019-04-06T13:44:33.911Z,30.10
2019-04-06T13:49:38.906Z,31.50
2019-04-06T13:54:44.485Z,32.00
2019-04-06T13:59:49.962Z,34.10
2019-04-06T14:05:00.655Z,34.80
2019-04-06T14:10:11.603Z,34.90
2019-04-06T14:21:15.079Z,35.30
2019-04-06T14:26:20.166Z,36.00
2019-04-06T14:31:37.317Z,36.70
2019-04-06T14:36:49.572Z,37.20
2019-04-06T14:42:04.019Z,36.70
2019-04-06T14:47:12.708Z,37.00
2019-04-06T14:52:24.092Z,36.90
2019-04-06T14:57:34.859Z,37.10
2019-04-06T15:02:40.222Z,36.40
2019-04-06T15:07:49.496Z,36.60
2019-04-06T15:13:00.398Z,36.60
2019-04-06T15:18:15.974Z,36.20
2019-04-06T15:23:25.382Z,36.10
2019-04-06T15:28:39.771Z,36.20
2019-04-06T15:33:59.669Z,35.90
2019-04-06T15:39:20.780Z,35.40
2019-04-06T15:44:28.756Z,35.70
2019-04-06T15:49:36.311Z,35.90
2019-04-06T15:54:59.292Z,36.40
2019-04-06T16:00:19.563Z,36.40
2019-04-06T16:05:25.719Z,36.70
2019-04-06T16:10:48.660Z,37.60
2019-04-06T16:15:57.173Z,37.70
2019-04-06T16:21:18.583Z,37.20
2019-04-06T16:26:23.608Z,36.80
2019-04-06T16:31:35.355Z,36.20
2019-04-06T16:36:43.153Z,36.20
2019-04-06T16:42:06.642Z,36.30
2019-04-06T16:47:17.530Z,36.00
2019-04-06T16:52:31.812Z,36.10
2019-04-06T16:57:45.813Z,36.50
2019-04-06T17:03:07.739Z,37.20
2019-04-06T17:08:15.458Z,37.50
2019-04-06T17:13:26.997Z,37.50
2019-04-06T17:23:56.073Z,37.80
2019-04-06T17:29:07.039Z,38.00
2019-04-06T17:34:15.390Z,38.20
2019-04-06T17:39:23.156Z,38.60
2019-04-06T17:44:45.338Z,38.60
2019-04-06T17:50:08.851Z,39.00
2019-04-06T17:55:30.439Z,39.30
2019-04-06T18:00:52.020Z,39.40
2019-04-06T18:06:06.684Z,39.60
2019-04-06T18:11:17.570Z,39.90
2019-04-06T18:16:23.152Z,40.10
2019-04-06T18:21:26.609Z,40.40
2019-04-06T18:26:30.092Z,40.70
2019-04-06T18:31:47.191Z,41.00
2019-04-06T18:37:01.370Z,41.40
2019-04-06T18:42:26.101Z,41.60
2019-04-06T18:47:30.128Z,41.90
2019-04-06T18:52:34.479Z,42.20
2019-04-06T18:58:08.842Z,42.50
2019-04-06T19:03:12.510Z,42.70
2019-04-06T19:13:50.214Z,43.60
2019-04-06T19:18:55.654Z,43.70
2019-04-06T19:35:10.456Z,44.20
2019-04-06T19:40:15.636Z,44.30
2019-04-06T19:45:19.633Z,44.60
2019-04-06T19:50:23.163Z,44.80
2019-04-06T19:55:27.069Z,44.90
2019-04-06T20:00:30.464Z,45.10
2019-04-06T20:05:33.908Z,45.30
2019-04-06T20:17:20.106Z,45.80
2019-04-06T20:44:17.292Z,47.30
2019-04-06T20:49:20.785Z,47.50
2019-04-06T20:54:24.617Z,48.00
2019-04-06T20:59:28.344Z,48.20
2019-04-06T21:04:31.860Z,48.30
2019-04-06T21:09:36.047Z,48.60
2019-04-06T21:14:40.483Z,48.80
2019-04-06T21:19:44.278Z,49.00
2019-04-06T21:24:51.478Z,49.20
2019-04-06T21:29:54.994Z,49.60
2019-04-06T21:35:00.358Z,49.90
2019-04-06T21:40:17.004Z,50.00
2019-04-06T21:45:20.712Z,50.30
2019-04-06T21:50:25.550Z,50.60
2019-04-06T21:55:30.012Z,50.90
2019-04-06T22:00:38.603Z,51.20
2019-04-06T22:05:42.127Z,51.50
2019-04-06T22:10:45.871Z,51.90
2019-04-06T22:15:49.285Z,52.20
2019-04-06T22:20:52.985Z,53.00
2019-04-06T22:25:56.862Z,52.80
2019-04-06T22:31:02.060Z,53.10
2019-04-06T22:36:05.410Z,53.40
2019-04-06T22:41:09.257Z,53.70
2019-04-06T22:46:12.679Z,53.90
2019-04-06T22:51:22.174Z,54.10
2019-04-06T22:56:27.159Z,54.80
2019-04-06T23:01:32.259Z,54.40
2019-04-06T23:06:43.120Z,54.60
2019-04-06T23:11:46.443Z,54.90
2019-04-06T23:16:50.239Z,55.00
2019-04-06T23:21:54.259Z,55.10
2019-04-06T23:26:57.829Z,55.30
2019-04-06T23:32:04.199Z,55.20
2019-04-06T23:37:08.401Z,55.10
2019-04-06T23:42:11.803Z,55.20
2019-04-06T23:47:15.140Z,55.10
2019-04-06T23:52:18.494Z,55.30
2019-04-06T23:57:22.183Z,55.10
